Terminal Aerodrome Forecast
Issued by NWS

Home | Current Version | Previous Version | Graphics & Text | Print | Product List | Glossary On
Versions: 1 2 3 4 5 6 7 8 9 10 11 12 13 14 15 16 17 18 19 20 21 22 23 24 25 26 27 28 29 30 31 32 33 34 35 36 37 38 39 40 41 42 43 44 45 46 47 48 49
000
FTUS43 KLOT 112327
TAFGYY
TAF
KGYY 112327Z 1200/1224 VRB03KT P6SM SCT250
     FM120300 25007KT P6SM FEW040 BKN100
     FM121100 27013KT P6SM -SN BKN025
     FM121700 31014G20KT 6SM -SN BR BKN025
     FM121900 31021G30KT P6SM BKN050=

USA.gov is the U.S. government's official web portal to all federal, state and local government web resources and services.